createdAt,value
2022-09-23T00:01:22.640Z,100700.34
2022-09-23T00:07:46.949Z,100697.62
2022-09-23T00:14:11.272Z,100698.25
2022-09-23T00:20:35.701Z,100699.00
2022-09-23T00:27:00.082Z,100693.98
2022-09-23T00:33:24.299Z,100689.00
2022-09-23T00:39:48.636Z,100684.80
2022-09-23T00:46:12.950Z,100682.26
2022-09-23T00:52:40.295Z,100682.27
2022-09-23T00:59:04.712Z,100681.79
2022-09-23T01:05:28.935Z,100682.63
2022-09-23T01:11:55.719Z,100677.84
2022-09-23T01:18:21.289Z,100673.35
2022-09-23T01:25:06.986Z,100675.15
2022-09-23T01:31:46.528Z,100673.52
2022-09-23T01:38:19.766Z,100677.58
2022-09-23T01:44:46.626Z,100680.40
2022-09-23T01:51:16.225Z,100679.39
2022-09-23T01:57:46.119Z,100675.60
2022-09-23T02:04:28.435Z,100677.90
2022-09-23T02:11:01.452Z,100678.13
2022-09-23T02:17:28.891Z,100679.89
2022-09-23T02:23:55.899Z,100677.63
2022-09-23T02:30:27.008Z,100676.95
2022-09-23T02:36:54.077Z,100670.48
2022-09-23T02:43:18.356Z,100668.08
2022-09-23T02:49:45.241Z,100672.48
2022-09-23T02:56:09.562Z,100675.44
2022-09-23T03:02:38.214Z,100678.25
2022-09-23T03:09:11.143Z,100675.50
2022-09-23T03:15:50.344Z,100674.16
2022-09-23T03:22:17.162Z,100671.54
2022-09-23T03:28:41.449Z,100667.77
2022-09-23T03:35:05.945Z,100661.31
2022-09-23T03:41:33.012Z,100667.47
2022-09-23T03:48:00.063Z,100670.17
2022-09-23T03:54:24.367Z,100665.56
2022-09-23T04:00:48.840Z,100658.60
2022-09-23T04:07:13.291Z,100655.98
2022-09-23T04:13:37.612Z,100654.22
2022-09-23T04:20:01.919Z,100653.55
2022-09-23T04:26:28.748Z,100654.74
2022-09-23T04:32:52.988Z,100655.27
2022-09-23T04:39:17.322Z,100660.79
2022-09-23T04:45:33.736Z,100666.30
2022-09-23T04:52:13.216Z,100669.49
2022-09-23T04:58:37.499Z,100667.64
2022-09-23T05:05:01.823Z,100665.20
2022-09-23T05:11:25.772Z,100661.33
2022-09-23T05:17:50.057Z,100666.00
2022-09-23T05:24:14.312Z,100666.92
2022-09-23T05:30:38.638Z,100667.09
2022-09-23T05:37:03.108Z,100669.57
2022-09-23T05:43:27.813Z,100671.14
2022-09-23T05:50:00.488Z,100677.35
2022-09-23T05:56:25.120Z,100682.05
2022-09-23T06:02:49.348Z,100683.36
2022-09-23T06:09:13.625Z,100682.77
2022-09-23T06:15:37.853Z,100684.69
2022-09-23T06:22:02.275Z,100680.39
2022-09-23T06:28:35.347Z,100678.57
2022-09-23T06:34:59.580Z,100680.88
2022-09-23T06:41:23.777Z,100682.45
2022-09-23T06:47:47.971Z,100690.20
2022-09-23T06:54:12.272Z,100688.26
2022-09-23T07:00:36.481Z,100693.15
2022-09-23T07:07:00.722Z,100693.14
2022-09-23T07:13:25.050Z,100696.59
2022-09-23T07:19:49.361Z,100700.60
2022-09-23T07:26:13.735Z,100697.30
2022-09-23T07:32:47.245Z,100698.52
2022-09-23T07:39:12.768Z,100691.41
2022-09-23T07:45:37.113Z,100690.89
2022-09-23T07:52:04.583Z,100690.19
2022-09-23T07:58:28.847Z,100682.92
2022-09-23T08:04:53.152Z,100682.04
2022-09-23T08:11:17.477Z,100676.17
2022-09-23T08:17:41.753Z,100674.80
2022-09-23T08:24:06.114Z,100670.23
2022-09-23T08:30:30.831Z,100668.28
2022-09-23T08:36:55.097Z,100664.49
2022-09-23T08:43:19.304Z,100666.69
2022-09-23T08:49:46.429Z,100661.95
2022-09-23T08:55:51.189Z,100652.43
2022-09-23T09:02:33.554Z,100653.39
2022-09-23T09:08:57.888Z,100653.48
2022-09-23T09:15:31.310Z,100650.08
2022-09-23T09:22:07.820Z,100640.04
2022-09-23T09:28:32.554Z,100636.16
2022-09-23T09:35:05.803Z,100630.83
2022-09-23T09:41:29.991Z,100630.09
2022-09-23T09:47:55.962Z,100622.95
2022-09-23T09:54:20.202Z,100618.55
2022-09-23T10:01:02.488Z,100616.08
2022-09-23T10:07:26.819Z,100611.92
2022-09-23T10:13:56.951Z,100613.00
2022-09-23T10:20:27.338Z,100600.88
2022-09-23T10:27:06.479Z,100599.33
2022-09-23T10:33:36.740Z,100597.26
2022-09-23T10:39:59.306Z,100593.27
2022-09-23T10:46:27.857Z,100588.30
2022-09-23T10:53:07.091Z,100580.65
2022-09-23T10:59:40.311Z,100573.64
2022-09-23T11:06:06.153Z,100575.10
2022-09-23T11:12:31.876Z,100573.69
2022-09-23T11:19:20.503Z,100574.91
2022-09-23T11:25:46.130Z,100568.59
2022-09-23T11:32:13.313Z,100567.11
2022-09-23T11:38:52.898Z,100555.30
2022-09-23T11:45:25.010Z,100547.21
2022-09-23T11:51:51.955Z,100541.92
2022-09-23T11:58:24.337Z,100536.79
2022-09-23T12:04:57.323Z,100530.02
2022-09-23T12:11:21.347Z,100524.88
2022-09-23T12:17:51.379Z,100519.24
2022-09-23T12:24:27.899Z,100513.73
2022-09-23T12:31:01.572Z,100511.79
2022-09-23T12:37:25.948Z,100505.66
2022-09-23T12:43:58.995Z,100501.13
2022-09-23T12:50:26.133Z,100500.95
2022-09-23T12:56:59.667Z,100496.87
2022-09-23T13:03:28.397Z,100491.48
2022-09-23T13:09:58.585Z,100483.89
2022-09-23T13:16:28.915Z,100478.52
2022-09-23T13:22:59.484Z,100475.48
2022-09-23T13:29:35.969Z,100468.31
2022-09-23T13:36:12.205Z,100462.91
2022-09-23T13:42:36.589Z,100456.84
2022-09-23T13:49:07.047Z,100451.25
2022-09-23T13:55:32.241Z,100444.96
2022-09-23T14:02:02.768Z,100438.89
2022-09-23T14:08:27.039Z,100434.39
2022-09-23T14:14:54.013Z,100438.02
2022-09-23T14:21:27.151Z,100438.29
2022-09-23T14:27:58.499Z,100434.09
2022-09-23T14:34:24.650Z,100434.59
2022-09-23T14:40:49.418Z,100439.31
2022-09-23T14:47:13.878Z,100436.44
2022-09-23T14:53:44.033Z,100428.59
2022-09-23T15:00:14.099Z,100423.96
2022-09-23T15:06:44.228Z,100422.46
2022-09-23T15:13:14.491Z,100417.10
2022-09-23T15:19:47.286Z,100416.20
2022-09-23T15:26:20.623Z,100411.43
2022-09-23T15:32:44.901Z,100410.39
2022-09-23T15:39:09.223Z,100414.88
2022-09-23T15:45:33.603Z,100417.92
2022-09-23T15:51:57.938Z,100415.86
2022-09-23T15:58:22.136Z,100416.99
2022-09-23T16:04:46.455Z,100417.80
2022-09-23T16:11:10.801Z,100415.83
2022-09-23T16:17:35.016Z,100420.79
2022-09-23T16:23:56.065Z,100425.76
2022-09-23T16:30:21.008Z,100422.68
2022-09-23T16:36:48.345Z,100422.59
2022-09-23T16:43:12.730Z,100420.30
2022-09-23T16:49:37.039Z,100418.35
2022-09-23T16:56:01.383Z,100421.92
2022-09-23T17:02:24.300Z,100421.68
2022-09-23T17:08:48.741Z,100419.96
2022-09-23T17:15:12.768Z,100417.96
2022-09-23T17:21:37.061Z,100413.10
2022-09-23T17:28:01.272Z,100412.02
2022-09-23T17:34:25.914Z,100414.86
2022-09-23T17:40:50.380Z,100417.31
2022-09-23T17:47:14.849Z,100422.34
2022-09-23T17:53:39.122Z,100424.89
2022-09-23T18:00:03.807Z,100424.97
2022-09-23T18:06:28.081Z,100427.44
2022-09-23T18:12:52.310Z,100429.55
2022-09-23T18:19:16.583Z,100429.48
2022-09-23T18:25:40.930Z,100427.81
2022-09-23T18:32:05.275Z,100432.52
2022-09-23T18:38:29.596Z,100432.41
2022-09-23T18:44:54.065Z,100430.55
2022-09-23T18:51:18.308Z,100427.20
2022-09-23T18:57:42.658Z,100427.42
2022-09-23T19:04:06.972Z,100426.79
2022-09-23T19:10:31.336Z,100422.93
2022-09-23T19:16:55.562Z,100422.41
2022-09-23T19:23:20.216Z,100422.23
2022-09-23T19:29:50.357Z,100431.44
2022-09-23T19:36:14.669Z,100431.70
2022-09-23T19:42:39.021Z,100437.27
2022-09-23T19:49:03.280Z,100442.31
2022-09-23T19:55:27.710Z,100445.16
2022-09-23T20:01:52.082Z,100445.13
2022-09-23T20:08:16.422Z,100442.27
2022-09-23T20:14:40.640Z,100446.76
2022-09-23T20:21:05.479Z,100445.16
2022-09-23T20:27:29.762Z,100440.11
2022-09-23T20:33:46.767Z,100441.36
2022-09-23T20:40:11.070Z,100435.23
2022-09-23T20:46:38.230Z,100430.11
2022-09-23T20:53:02.601Z,100426.69
2022-09-23T20:59:26.889Z,100422.89
2022-09-23T21:05:51.864Z,100421.45
2022-09-23T21:12:16.150Z,100421.16
2022-09-23T21:18:40.319Z,100417.31
2022-09-23T21:25:26.982Z,100417.02
2022-09-23T21:31:48.987Z,100418.90
2022-09-23T21:38:13.352Z,100423.97
2022-09-23T21:44:38.006Z,100425.93
2022-09-23T21:51:02.234Z,100428.62
2022-09-23T21:57:26.704Z,100429.13
2022-09-23T22:03:52.045Z,100430.89
2022-09-23T22:10:16.370Z,100426.64
2022-09-23T22:16:40.725Z,100423.09
2022-09-23T22:23:08.266Z,100425.35
2022-09-23T22:29:31.203Z,100421.62
2022-09-23T22:35:55.534Z,100420.64
2022-09-23T22:42:18.775Z,100416.15
2022-09-23T22:48:43.128Z,100413.89
2022-09-23T22:55:09.986Z,100410.71
2022-09-23T23:01:36.997Z,100403.22
2022-09-23T23:08:01.316Z,100399.20
2022-09-23T23:14:25.594Z,100397.81
2022-09-23T23:20:42.451Z,100394.46
2022-09-23T23:27:09.497Z,100382.41
2022-09-23T23:33:33.722Z,100386.27
2022-09-23T23:39:58.046Z,100381.99
2022-09-23T23:46:22.358Z,100372.75
2022-09-23T23:52:46.626Z,100372.31
2022-09-23T23:59:10.886Z,100373.21
